Time;durP1;ratioP1;P1;durP2;ratioP2;P2;SDS_P1;SDS_P2;PMS_P1;PMS_P2;Temp;Humidity;BMP_temperature;BMP_pressure;BME280_temperature;BME280_humidity;BME280_pressure;Samples;Min_cycle;Max_cycle;Signal;HPM_P1;HPM_P2
2022/01/20 00:04:04;;;;;;;31.73;22.10;;;;;;;2.12;51.13;95199.75;5029817;28;20176;-78
2022/01/20 00:09:33;;;;;;;31.70;22.00;;;;;;;2.00;51.02;95208.53;5030524;28;20553;-78
2022/01/20 00:28:17;;;;;;;33.85;20.20;;;;;;;1.71;52.43;95185.97;5028719;28;20261;-79
2022/01/20 00:30:53;;;;;;;34.53;22.30;;;;;;;1.48;53.02;95187.03;5027686;28;20183;-79
2022/01/20 00:38:36;;;;;;;30.67;20.80;;;;;;;1.43;53.69;95184.03;5040089;28;20329;-78
2022/01/20 00:41:02;;;;;;;31.40;20.15;;;;;;;1.84;52.49;95178.03;5030445;28;20889;-79
2022/01/20 00:43:28;;;;;;;31.77;21.30;;;;;;;1.43;52.66;95176.28;5030358;28;20187;-78
2022/01/20 00:45:53;;;;;;;28.77;19.70;;;;;;;1.27;53.23;95180.13;5031101;28;20214;-79
2022/01/20 00:48:20;;;;;;;29.33;17.10;;;;;;;1.25;53.79;95176.84;5030717;28;20222;-79
2022/01/20 00:50:46;;;;;;;26.15;17.85;;;;;;;1.47;53.13;95181.06;5030105;28;20194;-78
2022/01/20 00:53:11;;;;;;;26.73;17.60;;;;;;;2.08;51.02;95170.00;5047858;28;20650;-78
2022/01/20 00:55:38;;;;;;;26.23;17.23;;;;;;;1.71;51.75;95169.69;5031523;28;20179;-79
2022/01/20 00:58:04;;;;;;;21.98;16.17;;;;;;;1.20;53.14;95163.50;5030779;28;20188;-79
2022/01/20 01:00:30;;;;;;;29.03;18.83;;;;;;;0.80;54.51;95166.69;5030567;28;20218;-79
2022/01/20 01:02:56;;;;;;;28.90;17.57;;;;;;;1.03;53.79;95162.28;5030512;28;20179;-78
2022/01/20 01:05:21;;;;;;;25.30;17.73;;;;;;;1.43;52.84;95163.41;5030050;28;20202;-78
2022/01/20 01:07:49;;;;;;;27.17;17.60;;;;;;;1.14;54.20;95171.72;5031027;28;20272;-78
2022/01/20 01:10:27;;;;;;;26.13;19.23;;;;;;;0.51;55.25;95167.22;5030807;28;20179;-78
2022/01/20 01:15:25;;;;;;;24.50;16.77;;;;;;;1.02;54.43;95172.69;5048601;28;20239;-79
2022/01/20 01:21:08;;;;;;;24.77;16.88;;;;;;;0.78;54.90;95164.22;5047901;28;20226;-78
2022/01/20 01:23:21;;;;;;;26.45;15.90;;;;;;;0.72;54.83;95158.72;5047612;28;20194;-78
2022/01/20 01:25:46;;;;;;;23.77;16.87;;;;;;;0.84;54.42;95157.78;5030178;28;20184;-79
2022/01/20 01:28:12;;;;;;;25.07;16.57;;;;;;;0.84;54.15;95157.78;5029706;28;20321;-79
2022/01/20 01:33:22;;;;;;;36.35;21.23;;;;;;;1.22;53.36;95151.31;5047723;28;20246;-79
2022/01/20 01:35:59;;;;;;;29.60;19.50;;;;;;;1.15;53.31;95147.56;5030076;28;20191;-79
2022/01/20 01:39:04;;;;;;;35.67;20.35;;;;;;;1.06;53.94;95141.38;5047194;28;20207;-78
2022/01/20 01:41:33;;;;;;;28.23;19.48;;;;;;;0.34;55.71;95134.22;5046539;28;20187;-79
2022/01/20 01:44:04;;;;;;;23.05;15.95;;;;;;;0.77;54.40;95136.00;5030325;28;20179;-80
2022/01/20 01:46:30;;;;;;;31.52;18.63;;;;;;;1.27;53.27;95131.13;5047192;28;20246;-79
2022/01/20 01:48:57;;;;;;;31.58;20.48;;;;;;;1.10;53.02;95136.81;5029516;28;20215;-79
2022/01/20 01:51:41;;;;;;;23.27;17.45;;;;;;;0.70;54.63;95121.97;5047309;28;20183;-79
2022/01/20 01:54:06;;;;;;;27.67;17.70;;;;;;;0.89;53.80;95114.44;5025920;28;20184;-78
2022/01/20 01:57:13;;;;;;;24.57;17.90;;;;;;;0.96;53.39;95120.72;5045736;28;20210;-78
2022/01/20 01:59:38;;;;;;;23.40;18.00;;;;;;;1.18;53.26;95108.69;5012804;28;20215;-80
2022/01/20 02:02:04;;;;;;;31.03;19.20;;;;;;;0.89;54.17;95103.28;5029455;28;20187;-79
2022/01/20 02:04:30;;;;;;;22.50;15.53;;;;;;;0.88;54.59;95110.22;5047040;28;20198;-78
2022/01/20 02:17:55;;;;;;;21.58;13.23;;;;;;;1.31;52.21;95104.16;5047717;28;20226;-78
2022/01/20 02:20:20;;;;;;;23.27;13.65;;;;;;;0.97;53.38;95101.75;5031332;28;20191;-78
2022/01/20 02:22:46;;;;;;;24.50;14.40;;;;;;;1.07;53.32;95094.09;5030485;28;20255;-79
2022/01/20 02:25:23;;;;;;;20.00;15.50;;;;;;;0.92;53.67;95083.25;5047440;28;20179;-79
2022/01/20 02:27:50;;;;;;;21.92;12.65;;;;;;;1.10;53.48;95085.28;5028911;28;20199;-79
2022/01/20 02:30:17;;;;;;;21.00;14.70;;;;;;;0.76;54.64;95073.38;5028929;28;20206;-79
2022/01/20 02:33:00;;;;;;;23.70;14.60;;;;;;;0.33;55.26;95075.97;5046602;28;20246;-78
2022/01/20 02:35:29;;;;;;;18.67;15.50;;;;;;;0.42;55.06;95085.56;5029388;28;20175;-79
2022/01/20 02:38:00;;;;;;;20.88;13.90;;;;;;;0.63;55.08;95079.66;5048031;28;20218;-78
2022/01/20 02:46:10;;;;;;;21.67;14.00;;;;;;;0.71;54.18;95074.69;5034462;28;20206;-79
2022/01/20 02:48:36;;;;;;;25.85;15.82;;;;;;;0.68;54.13;95069.78;5046266;28;20195;-80
2022/01/20 02:51:02;;;;;;;24.20;14.13;;;;;;;0.68;54.26;95074.94;5028846;28;20187;-79
2022/01/20 02:53:27;;;;;;;20.80;15.23;;;;;;;0.54;54.63;95068.31;5028321;28;20438;-79
2022/01/20 02:55:53;;;;;;;23.10;14.30;;;;;;;0.93;53.18;95069.44;5029509;28;20195;-79
2022/01/20 02:58:19;;;;;;;21.37;14.10;;;;;;;0.76;53.55;95062.28;5029797;28;20175;-80
2022/01/20 03:00:45;;;;;;;19.70;14.77;;;;;;;0.85;54.08;95076.16;5029386;28;20183;-78
2022/01/20 03:03:11;;;;;;;22.57;13.70;;;;;;;0.70;54.42;95063.59;5029337;28;20450;-78
2022/01/20 03:05:36;;;;;;;18.15;12.70;;;;;;;0.64;53.93;95063.25;5046014;28;20712;-79
2022/01/20 03:08:02;;;;;;;23.23;15.23;;;;;;;0.89;53.38;95060.34;5047373;28;20210;-78
2022/01/20 03:10:29;;;;;;;23.33;13.77;;;;;;;0.93;52.62;95059.16;5047775;28;20243;-80
2022/01/20 03:12:56;;;;;;;25.58;14.48;;;;;;;1.15;52.81;95058.19;5047430;28;20187;-79
2022/01/20 03:15:22;;;;;;;21.30;15.27;;;;;;;0.87;53.63;95053.66;5047538;28;20183;-78
2022/01/20 03:17:48;;;;;;;22.17;14.63;;;;;;;0.66;53.90;95051.88;5029101;28;20213;-78
2022/01/20 03:20:13;;;;;;;18.40;14.50;;;;;;;0.62;54.11;95060.78;5025952;28;20208;-78
2022/01/20 03:22:39;;;;;;;20.40;13.87;;;;;;;1.00;53.50;95054.28;5027471;28;20419;-78
2022/01/20 03:25:05;;;;;;;22.73;15.57;;;;;;;0.81;54.01;95059.31;5015004;28;20214;-78
2022/01/20 03:27:31;;;;;;;23.30;14.98;;;;;;;0.80;53.18;95049.94;5029776;28;20204;-80
2022/01/20 03:29:56;;;;;;;24.40;15.27;;;;;;;0.61;54.11;95050.59;5029495;28;20206;-78
2022/01/20 03:32:22;;;;;;;17.57;14.80;;;;;;;0.83;53.44;95058.22;5030293;28;20183;-78
2022/01/20 03:34:47;;;;;;;18.93;13.70;;;;;;;0.39;54.58;95049.75;5046040;28;20594;-78
2022/01/20 03:37:13;;;;;;;17.40;11.67;;;;;;;0.81;53.65;95039.50;5046692;28;20310;-78
2022/01/20 03:39:38;;;;;;;19.33;14.13;;;;;;;0.76;54.24;95041.66;5028969;28;20171;-78
2022/01/20 03:42:04;;;;;;;21.13;11.50;;;;;;;0.10;55.57;95040.00;5046429;28;20203;-78
2022/01/20 03:44:29;;;;;;;18.70;12.40;;;;;;;0.48;54.73;95037.91;5029579;28;20188;-78
2022/01/20 03:46:57;;;;;;;20.07;10.10;;;;;;;0.49;54.53;95035.19;5029670;28;20196;-78
2022/01/20 03:49:32;;;;;;;24.45;14.45;;;;;;;0.31;55.03;95041.84;5043769;28;20182;-78
2022/01/20 03:51:58;;;;;;;17.17;12.25;;;;;;;-0.02;55.99;95030.66;5046142;28;20195;-79
2022/01/20 03:54:23;;;;;;;16.03;12.57;;;;;;;0.32;55.05;95031.41;5028474;28;20186;-79
2022/01/20 04:00:28;;;;;;;16.55;12.00;;;;;;;0.40;55.04;95028.22;4986286;28;20189;-79
2022/01/20 04:02:54;;;;;;;18.02;14.05;;;;;;;0.41;55.50;95041.91;5024115;28;20179;-78
2022/01/20 04:05:19;;;;;;;18.30;13.03;;;;;;;0.49;54.59;95034.38;5028744;28;20720;-77
2022/01/20 04:07:45;;;;;;;14.23;10.37;;;;;;;0.63;54.34;95023.00;5028810;28;20595;-78
2022/01/20 04:10:10;;;;;;;19.87;12.10;;;;;;;0.65;53.87;95028.84;5029305;28;20247;-77
2022/01/20 04:12:36;;;;;;;16.43;10.90;;;;;;;0.33;54.61;95029.66;5030101;28;20195;-77
2022/01/20 04:15:07;;;;;;;19.80;12.90;;;;;;;0.31;55.22;95031.53;5030607;28;20198;-78
2022/01/20 04:17:35;;;;;;;18.25;13.82;;;;;;;0.38;55.45;95022.41;5029122;28;20262;-78
2022/01/20 04:20:02;;;;;;;22.63;16.55;;;;;;;0.14;55.71;95028.53;5046893;28;20184;-78
2022/01/20 04:22:30;;;;;;;23.63;16.02;;;;;;;0.45;54.71;95018.38;5029158;28;20196;-78
2022/01/20 04:24:56;;;;;;;20.27;15.85;;;;;;;0.35;54.98;95028.59;5028375;28;20207;-79
2022/01/20 04:27:21;;;;;;;19.37;14.17;;;;;;;0.23;55.55;95028.72;5028304;28;20212;-79
2022/01/20 04:29:47;;;;;;;17.93;15.47;;;;;;;0.31;55.63;95023.81;5045543;28;20694;-78
2022/01/20 04:32:12;;;;;;;19.47;14.20;;;;;;;0.90;54.03;95023.31;5028839;28;20187;-79
2022/01/20 04:34:38;;;;;;;26.53;17.70;;;;;;;0.70;54.59;95031.84;5029366;28;20218;-78
2022/01/20 04:37:05;;;;;;;17.47;11.70;;;;;;;0.68;53.79;95019.09;5028473;28;20195;-78
2022/01/20 04:39:36;;;;;;;20.63;14.30;;;;;;;0.40;55.05;95030.81;5046761;28;20227;-78
2022/01/20 04:42:02;;;;;;;24.80;16.10;;;;;;;0.30;55.80;95032.47;5027712;28;20664;-78
2022/01/20 04:44:39;;;;;;;20.80;14.38;;;;;;;0.55;54.58;95023.59;5027735;28;20226;-78
2022/01/20 04:58:15;;;;;;;30.08;18.33;;;;;;;0.65;54.14;95013.38;5050522;28;20267;-78
2022/01/20 05:00:41;;;;;;;32.57;18.27;;;;;;;0.26;55.21;95018.22;5049927;28;20187;-77
2022/01/20 05:03:06;;;;;;;27.43;17.90;;;;;;;0.17;55.53;95015.44;5031523;28;20209;-79
2022/01/20 05:05:33;;;;;;;22.30;16.10;;;;;;;0.24;55.47;95020.09;5050509;28;20186;-78
2022/01/20 05:07:59;;;;;;;28.25;19.27;;;;;;;0.32;55.82;95020.28;5049143;28;20241;-79
2022/01/20 05:10:27;;;;;;;24.55;18.08;;;;;;;0.08;56.06;95020.50;5030880;28;20238;-78
2022/01/20 05:15:23;;;;;;;25.63;17.47;;;;;;;0.22;55.34;95021.97;5048950;28;20709;-78
2022/01/20 05:17:49;;;;;;;25.98;17.35;;;;;;;0.29;55.56;95015.41;5030712;28;20219;-79
2022/01/20 05:20:15;;;;;;;20.90;17.63;;;;;;;0.33;55.03;95015.03;5030358;28;20246;-78
2022/01/20 05:22:41;;;;;;;26.20;18.97;;;;;;;0.29;55.69;95012.84;5017181;28;20192;-77
2022/01/20 05:25:07;;;;;;;32.63;18.80;;;;;;;0.25;54.94;95009.69;5016356;28;20214;-78
2022/01/20 05:27:32;;;;;;;29.55;20.10;;;;;;;0.56;54.77;95017.50;5029671;28;20216;-78
2022/01/20 05:29:58;;;;;;;32.33;21.53;;;;;;;0.46;55.03;95020.00;5029329;28;20195;-78
2022/01/20 05:32:24;;;;;;;26.90;20.33;;;;;;;0.40;54.25;95017.94;5044865;28;20244;-78
2022/01/20 05:34:50;;;;;;;28.70;19.73;;;;;;;0.63;54.66;95028.16;5029946;28;20425;-78
2022/01/20 05:37:15;;;;;;;37.10;20.93;;;;;;;0.68;54.13;95018.28;5029883;28;20195;-78
2022/01/20 05:39:42;;;;;;;27.80;20.10;;;;;;;0.76;54.36;95021.88;5030029;28;20248;-78
2022/01/20 05:42:08;;;;;;;31.80;20.08;;;;;;;0.68;54.58;95026.00;5048149;28;20210;-78
2022/01/20 05:44:34;;;;;;;30.38;20.30;;;;;;;0.80;53.96;95025.03;5030140;28;20270;-79
2022/01/20 05:47:05;;;;;;;30.27;21.23;;;;;;;0.63;54.77;95021.22;5047260;28;20202;-78
2022/01/20 05:49:31;;;;;;;19.15;12.40;;;;;;;0.62;53.88;95019.59;5047476;28;20203;-78
2022/01/20 05:51:56;;;;;;;26.83;17.97;;;;;;;0.40;54.78;95020.50;5030920;28;20214;-78
2022/01/20 05:54:23;;;;;;;29.10;17.17;;;;;;;0.47;54.49;95028.53;5010268;28;20357;-78
2022/01/20 05:57:25;;;;;;;27.52;18.30;;;;;;;0.45;55.00;95026.09;5024559;28;20295;-78
2022/01/20 05:59:51;;;;;;;41.10;17.70;;;;;;;0.88;52.96;95024.41;5045414;28;20257;-76
2022/01/20 06:03:36;;;;;;;26.73;18.40;;;;;;;0.39;54.19;95029.16;5045941;28;20183;-76
2022/01/20 06:05:20;;;;;;;24.63;16.25;;;;;;;0.72;53.00;95022.22;5046749;28;20233;-77
2022/01/20 06:07:54;;;;;;;26.60;17.53;;;;;;;0.70;53.35;95024.94;5029249;28;20227;-76
2022/01/20 06:10:19;;;;;;;23.27;17.15;;;;;;;0.58;53.78;95023.34;5029224;28;20453;-77
2022/01/20 06:12:45;;;;;;;22.83;14.43;;;;;;;0.52;53.52;95022.09;5029289;28;20187;-77
2022/01/20 06:15:13;;;;;;;23.23;14.83;;;;;;;0.52;52.45;95024.66;5047539;28;20179;-77
2022/01/20 06:17:38;;;;;;;22.60;14.80;;;;;;;0.65;52.68;95018.53;5042455;28;20200;-77
2022/01/20 06:20:05;;;;;;;19.60;14.33;;;;;;;0.75;51.93;95025.38;5047102;28;20194;-76
2022/01/20 06:22:31;;;;;;;18.27;11.65;;;;;;;0.88;51.94;95025.19;5042517;28;20527;-77
2022/01/20 06:24:56;;;;;;;22.70;15.97;;;;;;;0.52;53.10;95029.81;5029076;28;20174;-76
2022/01/20 06:27:22;;;;;;;15.63;9.60;;;;;;;0.41;52.55;95031.63;5038881;28;20236;-76
2022/01/20 06:29:47;;;;;;;22.33;14.77;;;;;;;0.29;53.63;95036.81;5026509;28;20192;-77
2022/01/20 06:32:13;;;;;;;22.10;14.97;;;;;;;0.23;53.30;95033.88;5044674;28;20247;-77
2022/01/20 06:34:39;;;;;;;25.90;17.30;;;;;;;0.98;52.30;95041.53;5046545;28;20186;-76
2022/01/20 06:37:05;;;;;;;17.70;12.57;;;;;;;0.54;52.86;95030.50;5047032;28;20191;-77
2022/01/20 06:39:30;;;;;;;13.43;10.70;;;;;;;0.24;52.90;95020.09;5029819;28;20231;-77
2022/01/20 06:41:56;;;;;;;25.50;15.87;;;;;;;0.50;52.71;95042.00;5028629;28;20179;-75
2022/01/20 06:44:22;;;;;;;24.83;15.83;;;;;;;0.10;53.73;95032.28;5044134;28;20195;-76
2022/01/20 06:46:49;;;;;;;11.53;9.70;;;;;;;0.93;51.97;95032.53;5046862;28;20271;-76
2022/01/20 06:49:16;;;;;;;24.45;15.27;;;;;;;0.74;52.20;95025.50;5029332;28;20703;-76
2022/01/20 06:51:43;;;;;;;16.40;7.68;;;;;;;0.75;51.53;95024.56;5028979;28;20195;-77
2022/01/20 06:54:09;;;;;;;24.25;15.68;;;;;;;0.61;52.03;95020.53;5009741;28;20192;-77
2022/01/20 06:56:34;;;;;;;27.30;15.50;;;;;;;1.10;51.46;95007.97;5035720;28;20190;-75
2022/01/20 06:59:00;;;;;;;23.73;14.20;;;;;;;0.58;51.70;95018.22;5046356;28;20209;-77
2022/01/20 07:01:25;;;;;;;19.47;12.80;;;;;;;0.71;51.65;95012.88;5027144;28;20693;-75
2022/01/20 07:03:51;;;;;;;26.47;16.43;;;;;;;0.88;51.15;95014.91;5030491;28;20195;-77
2022/01/20 07:06:16;;;;;;;23.53;16.37;;;;;;;1.11;50.57;95019.91;5029087;28;20175;-76
2022/01/20 07:08:44;;;;;;;19.37;11.47;;;;;;;1.14;50.44;95022.25;5045479;28;20215;-77
2022/01/20 07:11:09;;;;;;;24.48;14.48;;;;;;;0.75;51.48;95019.41;5026104;28;20187;-76
2022/01/20 07:13:35;;;;;;;26.17;17.20;;;;;;;1.08;51.13;95018.41;5045323;28;20195;-76
2022/01/20 07:16:06;;;;;;;24.67;16.53;;;;;;;1.51;50.39;95026.91;5027721;28;20286;-77
2022/01/20 07:18:32;;;;;;;23.73;14.63;;;;;;;1.38;50.09;95031.47;5027816;28;20202;-76
2022/01/20 07:20:57;;;;;;;19.57;14.43;;;;;;;1.54;49.72;95027.47;5045614;28;20187;-76
2022/01/20 07:23:22;;;;;;;19.03;15.23;;;;;;;1.77;49.16;95036.78;5044227;28;20187;-77
2022/01/20 07:29:10;;;;;;;25.80;13.57;;;;;;;2.13;47.92;95017.31;5044866;28;20245;-76
2022/01/20 07:31:35;;;;;;;21.73;16.13;;;;;;;2.02;47.59;95017.44;5031146;28;20183;-76
2022/01/20 07:34:01;;;;;;;23.20;15.27;;;;;;;1.81;49.38;95017.53;5044028;28;20207;-75
2022/01/20 07:36:33;;;;;;;4.73;4.37;;;;;;;1.65;49.14;95021.41;5027294;28;20210;-76
2022/01/20 07:38:58;;;;;;;20.02;13.98;;;;;;;1.62;49.26;95019.06;5038205;28;20462;-76
2022/01/20 07:41:24;;;;;;;18.67;12.37;;;;;;;1.73;48.83;95016.41;5045995;28;20222;-76
2022/01/20 07:43:49;;;;;;;24.03;14.47;;;;;;;1.56;49.11;95009.28;5036510;28;20219;-76
2022/01/20 07:46:15;;;;;;;17.20;11.57;;;;;;;1.89;48.43;95008.16;5045441;28;20643;-76
2022/01/20 07:48:40;;;;;;;21.57;13.93;;;;;;;2.15;48.31;95008.50;5041889;28;20196;-75
2022/01/20 07:51:06;;;;;;;21.30;13.77;;;;;;;2.29;47.22;95009.06;5027882;28;20195;-77
2022/01/20 07:53:33;;;;;;;26.73;15.97;;;;;;;2.48;47.50;95006.47;5048151;28;20571;-77
2022/01/20 07:55:59;;;;;;;21.13;14.43;;;;;;;2.63;47.15;95003.50;5048481;28;20456;-76
2022/01/20 07:58:25;;;;;;;13.82;7.03;;;;;;;2.13;47.28;95012.16;5058136;28;20193;-76
2022/01/20 08:00:50;;;;;;;21.03;13.10;;;;;;;1.78;49.05;95012.59;5048597;28;20190;-76
2022/01/20 08:03:16;;;;;;;25.63;14.37;;;;;;;2.30;48.01;95008.13;5032213;28;20215;-76
2022/01/20 08:05:42;;;;;;;30.77;16.43;;;;;;;2.67;47.23;95015.19;5031382;28;20195;-77
2022/01/20 08:08:07;;;;;;;21.30;13.60;;;;;;;3.11;45.95;95018.97;5046261;28;20218;-78
2022/01/20 08:10:34;;;;;;;18.10;15.13;;;;;;;2.63;47.46;95013.81;5054209;28;20215;-77
2022/01/20 08:13:01;;;;;;;19.83;14.57;;;;;;;3.09;45.98;95027.78;5033396;28;20183;-77
2022/01/20 08:15:28;;;;;;;24.33;16.00;;;;;;;3.30;45.26;95032.78;5033315;28;20743;-76
2022/01/20 08:17:53;;;;;;;27.85;15.15;;;;;;;2.96;45.86;95029.84;5035158;28;20458;-75
2022/01/20 08:20:35;;;;;;;27.10;13.23;;;;;;;3.39;45.52;95021.59;5032438;28;20182;-78
2022/01/20 08:23:10;;;;;;;25.42;16.27;;;;;;;3.35;45.20;95016.84;5051121;28;20210;-77
2022/01/20 08:25:36;;;;;;;18.77;14.43;;;;;;;3.59;45.36;95022.38;5052168;28;20186;-76
2022/01/20 08:28:02;;;;;;;20.00;15.70;;;;;;;3.60;44.78;95002.47;5034722;28;20454;-76
2022/01/20 08:30:28;;;;;;;23.67;15.37;;;;;;;3.62;44.75;95006.53;5025311;28;20745;-77
2022/01/20 08:32:53;;;;;;;25.80;16.33;;;;;;;3.52;44.93;95008.34;5048636;28;20206;-77
2022/01/20 08:35:21;;;;;;;24.30;14.77;;;;;;;3.85;44.19;95001.00;5018664;28;20223;-77
2022/01/20 08:41:19;;;;;;;38.23;15.60;;;;;;;4.21;43.29;95006.25;5025293;28;20424;-79
2022/01/20 08:43:45;;;;;;;29.57;16.53;;;;;;;4.41;43.23;94994.78;5030422;28;20437;-77
2022/01/20 08:46:11;;;;;;;28.40;15.40;;;;;;;4.62;43.07;94996.28;5030884;28;20430;-77
2022/01/20 08:48:39;;;;;;;21.90;16.10;;;;;;;4.20;42.71;95000.25;5030250;28;20199;-76
2022/01/20 08:51:06;;;;;;;21.50;14.90;;;;;;;4.25;42.11;94997.22;5030750;28;20465;-77
2022/01/20 08:53:31;;;;;;;22.73;16.53;;;;;;;4.57;42.18;94999.31;5049172;28;20446;-77
2022/01/20 08:56:01;;;;;;;23.37;16.93;;;;;;;4.80;41.59;94991.91;5026610;28;20442;-75
2022/01/20 08:58:27;;;;;;;28.07;16.57;;;;;;;4.93;41.31;94990.69;5048651;28;20191;-77
2022/01/20 09:00:52;;;;;;;23.50;15.33;;;;;;;5.36;40.12;94991.63;5048062;28;20438;-75
2022/01/20 09:03:22;;;;;;;24.80;17.47;;;;;;;4.98;41.27;94989.28;5032058;28;20254;-77
2022/01/20 09:05:48;;;;;;;28.00;17.67;;;;;;;5.09;41.23;94988.22;5027058;28;20264;-75
2022/01/20 09:08:14;;;;;;;25.40;16.53;;;;;;;5.35;40.88;94990.00;5026130;28;20541;-76
2022/01/20 09:10:43;;;;;;;24.23;16.60;;;;;;;5.48;40.47;94988.63;5052174;28;20434;-77
2022/01/20 09:15:55;;;;;;;23.40;17.10;;;;;;;5.74;39.76;94979.97;5052156;28;20432;-77
2022/01/20 09:18:25;;;;;;;26.70;17.27;;;;;;;5.76;39.29;94980.63;5050491;28;20457;-86
2022/01/20 09:20:50;;;;;;;34.90;17.03;;;;;;;5.56;39.87;94987.00;5052074;28;20434;-77
2022/01/20 09:23:16;;;;;;;29.23;16.40;;;;;;;6.27;38.46;94970.25;5030112;28;20505;-77
2022/01/20 09:25:42;;;;;;;26.97;18.40;;;;;;;6.05;38.43;94971.66;5050553;28;20198;-76
2022/01/20 09:28:09;;;;;;;62.13;20.37;;;;;;;6.39;39.14;94969.00;5030571;28;20203;-76
2022/01/20 09:30:35;;;;;;;29.27;17.30;;;;;;;7.16;37.58;94958.25;5050267;28;20438;-77
2022/01/20 09:33:26;;;;;;;35.80;17.03;;;;;;;7.71;36.28;94943.63;5030766;28;20783;-78
2022/01/20 09:35:52;;;;;;;28.63;18.90;;;;;;;7.56;36.85;94940.91;5036371;28;20455;-78
2022/01/20 09:41:13;;;;;;;29.03;17.90;;;;;;;8.79;35.31;94944.66;5046483;28;20740;-77
2022/01/20 09:43:48;;;;;;;31.43;21.10;;;;;;;8.62;35.70;94938.75;5029297;28;20426;-79
2022/01/20 09:46:46;;;;;;;34.43;22.03;;;;;;;8.85;35.12;94937.91;5051595;28;20566;-80
2022/01/20 09:52:46;;;;;;;37.17;22.77;;;;;;;8.99;33.52;94921.47;4925881;28;20444;-78
2022/01/20 09:59:32;;;;;;;30.00;18.30;;;;;;;8.98;33.95;94906.81;4928126;29;20419;-79
2022/01/20 10:02:21;;;;;;;32.43;18.63;;;;;;;9.13;32.81;94897.19;4918981;29;20434;-79
2022/01/20 10:04:56;;;;;;;29.90;18.50;;;;;;;9.51;33.20;94891.88;4950211;29;20477;-77
2022/01/20 10:07:56;;;;;;;32.03;18.97;;;;;;;10.08;32.40;94882.50;4966356;28;20471;-78
2022/01/20 10:10:41;;;;;;;28.77;19.30;;;;;;;10.75;31.48;94870.84;4966556;29;20499;-77
2022/01/20 10:13:16;;;;;;;35.50;18.83;;;;;;;10.73;32.00;94872.84;4980221;28;20435;-78
2022/01/20 10:16:14;;;;;;;32.80;19.37;;;;;;;11.42;30.92;94860.00;5033480;28;20424;-78
2022/01/20 10:18:54;;;;;;;30.10;18.20;;;;;;;11.08;30.73;94851.97;5046245;28;20395;-76
2022/01/20 10:21:37;;;;;;;27.57;18.70;;;;;;;11.33;30.69;94844.44;5053180;28;20882;-78
2022/01/20 10:24:08;;;;;;;31.67;18.80;;;;;;;11.65;29.86;94841.38;5029508;28;20441;-78
2022/01/20 10:26:40;;;;;;;31.30;19.57;;;;;;;11.99;29.67;94826.56;5040731;28;20429;-78
2022/01/20 10:29:14;;;;;;;38.40;19.80;;;;;;;12.18;29.01;94825.81;5066393;28;20471;-78
2022/01/20 10:31:53;;;;;;;26.03;17.73;;;;;;;12.05;29.24;94823.16;5048524;28;20436;-80
2022/01/20 10:34:40;;;;;;;23.37;14.77;;;;;;;11.70;28.87;94815.34;5033632;28;20425;-79
2022/01/20 10:37:24;;;;;;;22.83;17.23;;;;;;;11.83;28.81;94817.22;5028887;28;20518;-78
2022/01/20 10:39:49;;;;;;;25.30;16.67;;;;;;;11.45;29.70;94813.25;5025672;28;20560;-77
2022/01/20 10:42:20;;;;;;;30.33;16.87;;;;;;;11.31;30.26;94803.72;5008486;28;20439;-77
2022/01/20 10:44:57;;;;;;;25.80;16.63;;;;;;;10.76;30.87;94803.63;5005352;28;20200;-76
2022/01/20 10:47:27;;;;;;;37.70;18.20;;;;;;;10.87;30.98;94805.72;5006039;28;20478;-77
2022/01/20 10:49:53;;;;;;;10.23;7.87;;;;;;;11.30;30.07;94808.13;5015021;28;20416;-77
2022/01/20 10:52:32;;;;;;;28.53;13.60;;;;;;;11.70;29.30;94805.69;5006546;28;20534;-77
2022/01/20 10:54:58;;;;;;;32.97;17.10;;;;;;;10.67;30.36;94797.72;5013671;28;20419;-78
2022/01/20 10:57:41;;;;;;;24.03;16.17;;;;;;;11.29;30.29;94787.41;5023270;28;20474;-79
2022/01/20 11:00:10;;;;;;;21.90;15.50;;;;;;;11.59;29.37;94784.47;5006332;28;20597;-78
2022/01/20 11:02:36;;;;;;;23.57;13.33;;;;;;;11.42;28.08;94776.97;5013308;28;20986;-78
2022/01/20 11:05:02;;;;;;;13.50;9.27;;;;;;;12.76;26.08;94777.16;5025121;28;20431;-78
2022/01/20 11:07:28;;;;;;;11.97;6.90;;;;;;;13.02;23.73;94771.84;5024248;28;20478;-77
2022/01/20 11:09:59;;;;;;;7.60;5.40;;;;;;;13.95;22.46;94764.59;5025698;28;20411;-79
2022/01/20 11:12:25;;;;;;;12.90;3.60;;;;;;;13.82;20.87;94761.00;5011835;28;20471;-78
2022/01/20 11:14:53;;;;;;;5.57;3.50;;;;;;;13.16;20.95;94754.22;5015210;28;20408;-78
2022/01/20 11:17:24;;;;;;;13.80;3.50;;;;;;;13.20;19.97;94759.84;5025913;28;20435;-79
2022/01/20 11:19:50;;;;;;;6.43;2.63;;;;;;;12.76;20.71;94753.50;5000499;28;20436;-77
2022/01/20 11:34:58;;;;;;;10.23;3.75;;;;;;;12.68;21.26;94728.28;5025740;28;20481;-80
2022/01/20 11:37:26;;;;;;;8.97;3.00;;;;;;;13.03;21.56;94738.47;5027243;28;20195;-79
2022/01/20 11:40:31;;;;;;;11.43;3.30;;;;;;;12.18;20.94;94736.59;5027646;28;20422;-83
2022/01/20 11:43:10;;;;;;;8.07;3.10;;;;;;;12.58;21.32;94731.31;5027069;28;20429;-77
2022/01/20 11:45:42;;;;;;;19.60;6.93;;;;;;;12.88;20.98;94730.84;5027051;28;20533;-80
2022/01/20 11:48:25;;;;;;;3.40;1.93;;;;;;;12.78;21.17;94727.84;5027599;28;20527;-79
2022/01/20 11:51:06;;;;;;;4.40;2.37;;;;;;;12.36;22.06;94729.94;5044999;28;20434;-77
2022/01/20 11:53:32;;;;;;;8.80;2.83;;;;;;;12.09;22.20;94729.94;5045173;28;20420;-79
2022/01/20 11:56:15;;;;;;;8.00;2.23;;;;;;;12.27;21.78;94717.03;5029787;28;20442;-79
2022/01/20 11:58:52;;;;;;;7.37;2.80;;;;;;;12.26;21.81;94727.72;5050966;28;20546;-79
2022/01/20 12:01:30;;;;;;;21.17;4.10;;;;;;;11.98;22.19;94714.81;5036291;28;21925;-79
2022/01/20 12:03:59;;;;;;;6.80;2.70;;;;;;;12.55;22.46;94713.34;5034983;28;20421;-79
2022/01/20 12:06:28;;;;;;;11.27;3.33;;;;;;;12.40;22.79;94723.25;5033611;28;20513;-78
2022/01/20 12:09:03;;;;;;;4.90;2.77;;;;;;;11.97;23.02;94710.56;5023076;28;20522;-79
2022/01/20 12:11:55;;;;;;;6.53;3.30;;;;;;;12.48;22.76;94710.75;5047209;28;21022;-79
2022/01/20 12:14:36;;;;;;;4.80;2.50;;;;;;;11.77;23.45;94711.31;5017262;28;20422;-79
2022/01/20 12:17:08;;;;;;;12.73;2.97;;;;;;;12.22;23.41;94719.44;5018365;28;21012;-79
2022/01/20 12:19:34;;;;;;;55.43;6.73;;;;;;;11.07;24.05;94715.97;5047323;28;20424;-78
2022/01/20 12:22:05;;;;;;;21.90;3.87;;;;;;;11.90;24.14;94721.84;5048713;28;20446;-78
2022/01/20 12:24:51;;;;;;;13.43;4.30;;;;;;;11.79;23.47;94717.16;5024419;28;20441;-79
2022/01/20 12:27:18;;;;;;;7.00;3.00;;;;;;;12.09;23.72;94714.19;5047708;28;20440;-79
2022/01/20 12:29:46;;;;;;;14.33;8.70;;;;;;;12.01;24.15;94719.63;5047190;28;20963;-79
2022/01/20 12:32:16;;;;;;;39.57;11.00;;;;;;;11.38;24.95;94702.34;5030255;28;20497;-79
2022/01/20 12:34:43;;;;;;;18.60;10.10;;;;;;;11.58;24.68;94714.72;5043229;28;20508;-79
2022/01/20 12:37:09;;;;;;;20.10;9.33;;;;;;;11.96;24.97;94708.94;5030534;28;20457;-78
2022/01/20 12:39:37;;;;;;;11.50;7.50;;;;;;;11.93;24.66;94714.59;5026745;28;20414;-81
2022/01/20 12:42:15;;;;;;;21.27;8.23;;;;;;;11.36;25.49;94699.13;5033784;28;20484;-82
2022/01/20 12:44:54;;;;;;;8.30;4.17;;;;;;;10.55;26.42;94691.97;5044316;28;20422;-81
2022/01/20 12:47:28;;;;;;;6.50;4.83;;;;;;;11.14;26.25;94709.75;5030881;28;20417;-82
2022/01/20 12:49:59;;;;;;;5.80;4.50;;;;;;;10.49;27.35;94693.53;5031110;28;20456;-80
2022/01/20 12:52:56;;;;;;;12.37;7.67;;;;;;;10.99;26.55;94709.09;5031082;28;20426;-83
2022/01/20 13:07:23;;;;;;;22.10;4.40;;;;;;;10.43;28.15;94670.75;5061454;28;20293;-78
2022/01/20 13:10:19;;;;;;;4.30;2.20;;;;;;;10.57;28.59;94674.25;5039915;28;20475;-78
2022/01/20 13:12:56;;;;;;;9.33;4.30;;;;;;;10.86;27.80;94682.84;5050105;28;20436;-78
2022/01/20 13:16:10;;;;;;;5.90;5.40;;;;;;;10.77;28.05;94682.19;5059220;28;20439;-78
2022/01/20 13:18:36;;;;;;;15.30;6.70;;;;;;;10.30;28.96;94663.66;5002708;28;20469;-78
2022/01/20 13:21:18;;;;;;;5.43;4.90;;;;;;;10.53;29.06;94680.88;5027224;28;20937;-78
2022/01/20 13:23:57;;;;;;;7.20;3.70;;;;;;;10.42;29.22;94676.19;5029704;28;20199;-78
2022/01/20 13:26:56;;;;;;;9.10;4.27;;;;;;;10.77;28.79;94673.53;5029722;28;20531;-78
2022/01/20 13:29:31;;;;;;;9.27;4.50;;;;;;;10.71;28.11;94677.75;5047953;28;20462;-77
2022/01/20 13:32:17;;;;;;;10.33;4.13;;;;;;;10.65;29.14;94676.72;5029568;28;20421;-78